createdAt,value
2023-05-17T00:01:56.611Z,7.83
2023-05-17T00:04:23.842Z,4.10
2023-05-17T00:06:51.585Z,2.33
2023-05-17T00:09:19.269Z,5.20
2023-05-17T00:11:46.410Z,2.97
2023-05-17T00:14:14.280Z,6.77
2023-05-17T00:16:41.592Z,6.60
2023-05-17T00:19:11.562Z,3.23
2023-05-17T00:21:57.162Z,3.53
2023-05-17T00:24:39.693Z,5.83
2023-05-17T00:27:20.675Z,2.17
2023-05-17T00:33:31.052Z,6.60
2023-05-17T00:36:13.950Z,5.70
2023-05-17T00:41:42.945Z,8.83
2023-05-17T00:44:25.459Z,5.40
2023-05-17T00:47:01.930Z,4.53
2023-05-17T00:49:40.498Z,2.77
2023-05-17T00:52:23.911Z,6.13
2023-05-17T00:55:09.922Z,9.83
2023-05-17T00:57:48.284Z,6.47
2023-05-17T01:00:25.567Z,5.00
2023-05-17T01:03:04.596Z,6.43
2023-05-17T01:05:36.645Z,5.53
2023-05-17T01:08:33.992Z,4.80
2023-05-17T01:11:30.530Z,4.70
2023-05-17T01:15:21.704Z,6.17
2023-05-17T01:18:46.414Z,7.00
2023-05-17T01:22:39.349Z,6.83
2023-05-17T01:25:48.942Z,4.60
2023-05-17T01:28:27.567Z,3.40
2023-05-17T01:31:10.546Z,4.47
2023-05-17T01:34:02.026Z,4.43
2023-05-17T01:37:02.438Z,3.53
2023-05-17T01:40:01.632Z,4.40
2023-05-17T01:42:40.560Z,5.77
2023-05-17T01:45:30.352Z,5.20
2023-05-17T01:48:16.535Z,3.20
2023-05-17T01:50:52.616Z,9.60
2023-05-17T01:54:05.211Z,5.93
2023-05-17T01:57:06.961Z,5.73
2023-05-17T01:59:47.029Z,8.70
2023-05-17T02:02:15.462Z,4.30
2023-05-17T02:04:54.220Z,9.90
2023-05-17T02:07:34.691Z,6.27
2023-05-17T02:10:21.842Z,7.37
2023-05-17T02:12:57.356Z,9.80
2023-05-17T02:15:40.626Z,5.10
2023-05-17T02:18:50.159Z,5.37
2023-05-17T02:24:13.920Z,6.53
2023-05-17T02:26:53.527Z,6.43
2023-05-17T02:29:35.159Z,12.43
2023-05-17T02:32:09.960Z,8.83
2023-05-17T02:34:40.941Z,11.47
2023-05-17T02:37:09.009Z,6.73
2023-05-17T02:39:48.137Z,10.83
2023-05-17T02:42:21.870Z,7.77
2023-05-17T02:45:06.194Z,4.23
2023-05-17T02:47:38.743Z,6.93
2023-05-17T02:50:25.552Z,3.33
2023-05-17T02:52:53.004Z,8.87
2023-05-17T02:55:20.293Z,8.33
2023-05-17T02:57:47.471Z,17.57
2023-05-17T03:00:16.846Z,6.40
2023-05-17T03:02:44.053Z,6.03
2023-05-17T03:05:11.407Z,14.60
2023-05-17T03:07:43.895Z,10.80
2023-05-17T03:10:11.508Z,6.23
2023-05-17T03:12:43.114Z,6.90
2023-05-17T03:15:11.130Z,6.73
2023-05-17T03:17:38.296Z,5.87
2023-05-17T03:20:07.965Z,12.40
2023-05-17T03:22:36.464Z,8.57
2023-05-17T03:25:05.317Z,6.20
2023-05-17T03:27:33.624Z,5.70
2023-05-17T03:30:01.953Z,8.93
2023-05-17T03:32:30.669Z,7.60
2023-05-17T03:34:58.337Z,8.70
2023-05-17T03:37:26.626Z,6.73
2023-05-17T03:39:53.781Z,8.30
2023-05-17T03:42:21.044Z,9.93
2023-05-17T03:44:48.870Z,14.80
2023-05-17T03:47:16.330Z,14.43
2023-05-17T03:49:44.308Z,11.57
2023-05-17T03:52:11.876Z,11.00
2023-05-17T03:54:39.164Z,10.83
2023-05-17T03:57:06.583Z,11.63
2023-05-17T03:59:33.805Z,9.60
2023-05-17T04:02:01.314Z,6.30
2023-05-17T04:04:30.102Z,14.20
2023-05-17T04:06:58.034Z,14.70
2023-05-17T04:09:27.050Z,4.90
2023-05-17T04:11:54.269Z,11.67
2023-05-17T04:14:22.451Z,9.47
2023-05-17T04:16:49.904Z,16.73
2023-05-17T04:19:17.316Z,4.93
2023-05-17T04:21:45.872Z,9.10
2023-05-17T04:24:13.361Z,16.27
2023-05-17T04:26:40.728Z,6.60
2023-05-17T04:29:08.679Z,8.93
2023-05-17T04:31:35.774Z,6.80
2023-05-17T04:34:02.936Z,7.07
2023-05-17T04:36:30.537Z,7.60
2023-05-17T04:38:58.229Z,10.80
2023-05-17T04:41:29.062Z,6.43
2023-05-17T04:43:56.952Z,11.50
2023-05-17T04:46:31.187Z,7.87
2023-05-17T04:48:58.646Z,10.57
2023-05-17T04:51:27.172Z,12.10
2023-05-17T04:53:55.072Z,12.30
2023-05-17T04:56:22.872Z,8.93
2023-05-17T04:58:52.811Z,11.37
2023-05-17T05:01:21.032Z,6.20
2023-05-17T05:03:48.685Z,7.00
2023-05-17T05:06:16.454Z,11.60
2023-05-17T05:08:44.553Z,5.13
2023-05-17T05:11:13.112Z,9.40
2023-05-17T05:13:41.829Z,7.37
2023-05-17T05:16:11.988Z,13.97
2023-05-17T05:18:39.524Z,14.23
2023-05-17T05:21:07.664Z,23.13
2023-05-17T05:23:35.327Z,12.87
2023-05-17T05:26:03.087Z,14.07
2023-05-17T05:28:31.005Z,12.07
2023-05-17T05:31:00.478Z,12.30
2023-05-17T05:33:33.882Z,11.20
2023-05-17T05:36:01.284Z,10.70
2023-05-17T05:38:28.482Z,8.40
2023-05-17T05:40:55.820Z,14.53
2023-05-17T05:43:23.250Z,11.27
2023-05-17T05:45:50.599Z,8.40
2023-05-17T05:48:18.053Z,14.30
2023-05-17T05:50:46.076Z,10.87
2023-05-17T05:53:18.919Z,10.33
2023-05-17T05:55:54.035Z,14.93
2023-05-17T05:58:21.410Z,10.37
2023-05-17T06:00:49.810Z,9.77
2023-05-17T06:03:17.239Z,14.10
2023-05-17T06:05:44.475Z,11.80
2023-05-17T06:08:11.737Z,10.20
2023-05-17T06:10:38.875Z,13.97
2023-05-17T06:13:06.162Z,13.53
2023-05-17T06:15:33.478Z,15.60
2023-05-17T06:18:00.762Z,13.80
2023-05-17T06:20:28.205Z,14.80
2023-05-17T06:22:55.589Z,16.77
2023-05-17T06:25:22.822Z,11.73
2023-05-17T06:27:50.872Z,13.23
2023-05-17T06:30:18.254Z,14.33
2023-05-17T06:32:45.458Z,10.90
2023-05-17T06:35:12.843Z,12.27
2023-05-17T06:37:40.106Z,8.70
2023-05-17T06:40:15.494Z,14.70
2023-05-17T06:42:43.716Z,18.53
2023-05-17T06:45:12.507Z,9.83
2023-05-17T06:47:42.775Z,15.43
2023-05-17T06:50:10.873Z,7.10
2023-05-17T06:52:38.086Z,17.93
2023-05-17T06:55:06.874Z,11.63
2023-05-17T06:57:34.057Z,11.87
2023-05-17T07:00:01.195Z,15.90
2023-05-17T07:02:33.092Z,16.40
2023-05-17T07:05:01.821Z,9.37
2023-05-17T07:07:29.043Z,13.83
2023-05-17T07:09:58.597Z,11.80
2023-05-17T07:12:25.861Z,12.67
2023-05-17T07:14:53.062Z,14.50
2023-05-17T07:17:20.573Z,12.83
2023-05-17T07:19:51.229Z,17.50
2023-05-17T07:22:19.003Z,17.63
2023-05-17T07:24:46.629Z,12.83
2023-05-17T07:27:14.029Z,11.33
2023-05-17T07:29:42.232Z,8.30
2023-05-17T07:32:12.298Z,8.47
2023-05-17T07:34:39.523Z,16.17
2023-05-17T07:37:08.514Z,18.07
2023-05-17T07:39:35.719Z,12.37
2023-05-17T07:42:05.151Z,13.10
2023-05-17T07:44:32.553Z,11.93
2023-05-17T07:46:59.803Z,12.27
2023-05-17T07:49:28.115Z,15.90
2023-05-17T07:51:55.961Z,13.37
2023-05-17T07:54:24.751Z,9.23
2023-05-17T07:56:53.450Z,10.20
2023-05-17T07:59:21.522Z,11.27
2023-05-17T08:01:48.796Z,14.53
2023-05-17T08:04:16.535Z,12.77
2023-05-17T08:06:46.317Z,11.30
2023-05-17T08:09:13.432Z,9.53
2023-05-17T08:11:45.860Z,15.27
2023-05-17T08:14:14.932Z,14.43
2023-05-17T08:16:51.922Z,11.60
2023-05-17T08:19:20.802Z,13.80
2023-05-17T08:21:49.267Z,9.93
2023-05-17T08:24:17.723Z,13.20
2023-05-17T08:26:44.802Z,11.40
2023-05-17T08:29:11.960Z,12.07
2023-05-17T08:31:39.103Z,13.90
2023-05-17T08:34:06.514Z,13.33
2023-05-17T08:36:33.759Z,9.50
2023-05-17T08:39:01.097Z,13.00
2023-05-17T08:41:29.887Z,21.70
2023-05-17T08:43:59.122Z,11.73
2023-05-17T08:46:26.968Z,16.27
2023-05-17T08:49:00.146Z,13.63
2023-05-17T08:51:31.201Z,9.00
2023-05-17T08:53:58.820Z,11.17
2023-05-17T08:56:28.718Z,5.23
2023-05-17T08:58:58.139Z,11.67
2023-05-17T09:01:27.904Z,14.43
2023-05-17T09:03:56.544Z,10.60
2023-05-17T09:06:25.622Z,10.43
2023-05-17T09:08:58.627Z,8.10
2023-05-17T09:11:33.217Z,8.27
2023-05-17T09:14:06.227Z,7.50
2023-05-17T09:16:36.652Z,12.13
2023-05-17T09:19:06.189Z,14.30
2023-05-17T09:21:34.222Z,7.00
2023-05-17T09:26:43.689Z,9.03
2023-05-17T09:29:16.472Z,6.47
2023-05-17T09:31:44.754Z,19.57
2023-05-17T09:34:12.256Z,8.97
2023-05-17T09:36:43.751Z,9.10
2023-05-17T09:39:13.635Z,10.67
2023-05-17T09:41:47.152Z,9.70
2023-05-17T09:44:15.438Z,10.63
2023-05-17T09:46:48.164Z,9.50
2023-05-17T09:49:17.774Z,13.20
2023-05-17T09:51:48.305Z,10.53
2023-05-17T09:54:15.610Z,8.73
2023-05-17T09:56:43.274Z,9.23
2023-05-17T09:59:18.675Z,10.00
2023-05-17T10:01:46.122Z,10.77
2023-05-17T10:04:14.467Z,11.23
2023-05-17T10:06:49.641Z,15.73
2023-05-17T10:09:22.051Z,12.90
2023-05-17T10:11:51.744Z,7.90
2023-05-17T10:14:33.694Z,9.47
2023-05-17T10:17:03.233Z,8.40
2023-05-17T10:19:31.560Z,11.00
2023-05-17T10:22:11.110Z,11.77
2023-05-17T10:24:49.141Z,25.00
2023-05-17T10:27:17.293Z,13.73
2023-05-17T10:29:47.659Z,17.97
2023-05-17T10:32:17.865Z,19.07
2023-05-17T10:34:49.446Z,11.90
2023-05-17T10:37:23.199Z,8.00
2023-05-17T10:39:52.280Z,10.13
2023-05-17T10:42:21.708Z,11.90
2023-05-17T10:44:49.007Z,12.20
2023-05-17T10:47:16.816Z,17.40
2023-05-17T10:49:48.228Z,7.67
2023-05-17T10:52:21.615Z,8.60
2023-05-17T10:54:53.510Z,7.70
2023-05-17T10:57:49.163Z,7.50
2023-05-17T11:00:21.988Z,13.77
2023-05-17T11:02:50.792Z,14.60
2023-05-17T11:05:28.118Z,10.83
2023-05-17T11:08:17.307Z,11.40
2023-05-17T11:11:19.892Z,8.57
2023-05-17T11:13:52.945Z,11.47
2023-05-17T11:16:28.668Z,17.73
2023-05-17T11:19:09.216Z,7.87
2023-05-17T11:21:36.700Z,10.10
2023-05-17T11:24:05.195Z,12.97
2023-05-17T11:26:38.336Z,10.93
2023-05-17T11:29:10.618Z,5.10
2023-05-17T11:31:44.186Z,9.30
2023-05-17T11:34:12.394Z,7.33
2023-05-17T11:36:56.516Z,8.10
2023-05-17T11:39:25.469Z,7.73
2023-05-17T11:41:57.554Z,8.60
2023-05-17T11:44:34.779Z,6.93
2023-05-17T11:47:09.610Z,5.60
2023-05-17T11:49:40.745Z,11.50
2023-05-17T11:52:08.773Z,15.03
2023-05-17T11:54:38.953Z,6.30
2023-05-17T11:57:07.205Z,7.13
2023-05-17T11:59:39.934Z,5.70
2023-05-17T12:02:07.726Z,6.17
2023-05-17T12:04:39.485Z,6.03
2023-05-17T12:07:11.055Z,7.30
2023-05-17T12:09:40.643Z,7.47
2023-05-17T12:12:08.740Z,7.57
2023-05-17T12:14:36.256Z,4.77
2023-05-17T12:17:07.219Z,5.20
2023-05-17T12:19:34.510Z,14.57
2023-05-17T12:22:12.485Z,5.97
2023-05-17T12:24:43.877Z,5.20
2023-05-17T12:27:11.840Z,15.83
2023-05-17T12:29:39.822Z,6.80
2023-05-17T12:32:09.849Z,6.67
2023-05-17T12:34:37.538Z,3.60
2023-05-17T12:37:10.527Z,11.00
2023-05-17T12:39:38.392Z,11.03
2023-05-17T12:42:07.581Z,8.67
2023-05-17T12:44:41.059Z,10.10
2023-05-17T12:47:10.388Z,9.17
2023-05-17T12:49:52.826Z,11.07
2023-05-17T12:52:20.230Z,8.50
2023-05-17T12:54:47.529Z,12.60
2023-05-17T12:57:16.141Z,6.37
2023-05-17T12:59:49.018Z,6.83
2023-05-17T13:02:17.613Z,10.63
2023-05-17T13:04:45.023Z,10.00
2023-05-17T13:07:12.377Z,8.10
2023-05-17T13:09:57.705Z,10.83
2023-05-17T13:12:25.218Z,10.30
2023-05-17T13:14:53.720Z,12.90
2023-05-17T13:17:35.247Z,9.03
2023-05-17T13:20:02.842Z,12.53
2023-05-17T13:22:30.179Z,7.67
2023-05-17T13:24:57.517Z,6.77
2023-05-17T13:27:24.915Z,7.53
2023-05-17T13:29:53.253Z,7.70
2023-05-17T13:32:21.914Z,11.73
2023-05-17T13:34:49.385Z,31.23
2023-05-17T13:37:16.647Z,18.20
2023-05-17T13:39:44.177Z,27.23
2023-05-17T13:42:12.626Z,49.40
2023-05-17T13:44:40.303Z,27.87
2023-05-17T13:47:08.276Z,30.27
2023-05-17T13:49:36.188Z,9.93
2023-05-17T13:52:03.815Z,8.23
2023-05-17T13:54:31.290Z,93.77
2023-05-17T13:56:58.758Z,13.03
2023-05-17T13:59:26.285Z,13.57
2023-05-17T14:01:53.831Z,7.20
2023-05-17T14:04:21.549Z,9.20
2023-05-17T14:06:51.714Z,13.27
2023-05-17T14:09:20.467Z,13.63
2023-05-17T14:11:47.812Z,16.63
2023-05-17T14:14:14.930Z,7.77
2023-05-17T14:16:42.132Z,65.83
2023-05-17T14:19:09.375Z,48.33
2023-05-17T14:21:36.619Z,206.10
2023-05-17T14:24:03.960Z,185.20
2023-05-17T14:26:31.233Z,45.00
2023-05-17T14:28:58.809Z,430.13
2023-05-17T14:31:29.905Z,416.77
2023-05-17T14:33:57.576Z,332.37
2023-05-17T14:36:25.062Z,290.80
2023-05-17T14:38:52.219Z,341.13
2023-05-17T14:41:19.353Z,331.60
2023-05-17T14:43:46.493Z,285.97
2023-05-17T14:46:14.878Z,372.43
2023-05-17T14:48:42.103Z,262.60
2023-05-17T14:51:09.673Z,341.80
2023-05-17T14:53:37.731Z,293.37
2023-05-17T14:56:07.898Z,295.63
2023-05-17T14:58:35.182Z,276.13
2023-05-17T15:01:04.903Z,354.40
2023-05-17T15:03:34.269Z,287.20
2023-05-17T15:06:05.090Z,202.13
2023-05-17T15:08:34.665Z,229.97
2023-05-17T15:11:02.382Z,133.90
2023-05-17T15:13:29.636Z,154.23
2023-05-17T15:15:56.878Z,186.77
2023-05-17T15:18:24.139Z,193.97
2023-05-17T15:20:51.316Z,195.70
2023-05-17T15:23:18.573Z,209.53
2023-05-17T15:25:45.739Z,230.07
2023-05-17T15:28:14.037Z,201.57
2023-05-17T15:30:42.109Z,202.53
2023-05-17T15:33:09.600Z,180.37
2023-05-17T15:35:41.316Z,165.80
2023-05-17T15:38:08.566Z,187.43
2023-05-17T15:40:35.745Z,145.60
2023-05-17T15:43:02.975Z,119.43
2023-05-17T15:45:30.437Z,132.27
2023-05-17T15:47:58.038Z,39.20
2023-05-17T15:50:25.186Z,92.77
2023-05-17T15:52:52.440Z,15.23
2023-05-17T15:55:19.624Z,9.60
2023-05-17T15:57:46.922Z,6.80
2023-05-17T16:00:14.588Z,9.37
2023-05-17T16:02:41.852Z,9.87
2023-05-17T16:05:09.527Z,5.37
2023-05-17T16:07:36.922Z,7.20
2023-05-17T16:10:04.373Z,6.17
2023-05-17T16:12:31.882Z,8.73
2023-05-17T16:14:59.330Z,7.93
2023-05-17T16:17:27.455Z,7.23
2023-05-17T16:19:54.783Z,8.80
2023-05-17T16:22:22.068Z,9.73
2023-05-17T16:24:53.906Z,8.60
2023-05-17T16:27:21.854Z,7.67
2023-05-17T16:29:49.133Z,9.30
2023-05-17T16:32:16.396Z,10.10
2023-05-17T16:34:43.721Z,4.07
2023-05-17T16:37:11.244Z,5.50
2023-05-17T16:39:38.404Z,10.13
2023-05-17T16:42:05.897Z,6.27
2023-05-17T16:44:33.506Z,13.83
2023-05-17T16:47:01.398Z,6.70
2023-05-17T16:49:30.508Z,9.00
2023-05-17T16:51:57.839Z,5.07
2023-05-17T16:54:28.244Z,7.43
2023-05-17T16:56:56.287Z,4.00
2023-05-17T16:59:23.462Z,11.23
2023-05-17T17:01:51.334Z,6.13
2023-05-17T17:04:18.661Z,7.40
2023-05-17T17:06:45.994Z,10.90
2023-05-17T17:09:13.097Z,13.57
2023-05-17T17:11:40.704Z,65.00
2023-05-17T17:14:07.967Z,57.07
2023-05-17T17:16:35.276Z,47.40
2023-05-17T17:19:03.696Z,44.93
2023-05-17T17:21:36.421Z,54.30
2023-05-17T17:24:05.790Z,62.43
2023-05-17T17:26:37.436Z,44.67
2023-05-17T17:29:05.406Z,44.27
2023-05-17T17:31:32.714Z,46.27
2023-05-17T17:34:00.176Z,43.97
2023-05-17T17:36:27.375Z,46.13
2023-05-17T17:38:54.496Z,44.57
2023-05-17T17:41:21.741Z,40.47
2023-05-17T17:43:49.454Z,45.60
2023-05-17T17:46:16.720Z,42.67
2023-05-17T17:48:43.917Z,44.70
2023-05-17T17:51:11.461Z,60.30
2023-05-17T17:53:41.365Z,49.70
2023-05-17T17:56:08.812Z,51.17
2023-05-17T17:58:36.995Z,42.00
2023-05-17T18:01:04.578Z,42.63
2023-05-17T18:03:31.751Z,45.17
2023-05-17T18:05:59.157Z,50.33
2023-05-17T18:08:28.758Z,41.83
2023-05-17T18:10:56.320Z,51.17
2023-05-17T18:13:23.841Z,45.73
2023-05-17T18:15:51.282Z,47.63
2023-05-17T18:18:18.497Z,43.93
2023-05-17T18:20:45.786Z,40.10
2023-05-17T18:23:13.016Z,35.97
2023-05-17T18:25:40.216Z,37.13
2023-05-17T18:28:09.001Z,35.07
2023-05-17T18:30:36.465Z,47.73
2023-05-17T18:33:03.975Z,36.77
2023-05-17T18:35:31.300Z,32.33
2023-05-17T18:37:59.830Z,33.47
2023-05-17T18:40:28.068Z,21.70
2023-05-17T18:42:55.900Z,15.57
2023-05-17T18:45:23.029Z,12.63
2023-05-17T18:47:50.313Z,6.03
2023-05-17T18:50:17.912Z,10.87
2023-05-17T18:52:44.971Z,6.63
2023-05-17T18:55:12.146Z,11.03
2023-05-17T18:57:39.691Z,7.13
2023-05-17T19:00:08.666Z,10.03
2023-05-17T19:02:36.128Z,10.37
2023-05-17T19:05:03.919Z,6.10
2023-05-17T19:07:31.163Z,7.87
2023-05-17T19:09:58.409Z,14.70
2023-05-17T19:12:25.898Z,9.20
2023-05-17T19:14:53.049Z,6.20
2023-05-17T19:17:20.225Z,10.13
2023-05-17T19:19:47.665Z,16.77
2023-05-17T19:22:14.969Z,9.63
2023-05-17T19:24:42.120Z,11.23
2023-05-17T19:27:10.709Z,3.57
2023-05-17T19:29:38.059Z,14.03
2023-05-17T19:32:06.313Z,11.90
2023-05-17T19:34:33.581Z,8.80
2023-05-17T19:37:00.785Z,10.27
2023-05-17T19:39:28.034Z,11.53
2023-05-17T19:41:55.783Z,11.53
2023-05-17T19:44:23.125Z,8.40
2023-05-17T19:46:50.668Z,7.77
2023-05-17T19:49:17.972Z,11.03
2023-05-17T19:51:46.757Z,8.30
2023-05-17T19:54:14.224Z,8.23
2023-05-17T19:56:41.715Z,5.83
2023-05-17T19:59:12.031Z,10.17
2023-05-17T20:01:39.294Z,12.23
2023-05-17T20:04:06.844Z,10.83
2023-05-17T20:06:34.235Z,13.53
2023-05-17T20:09:01.959Z,10.27
2023-05-17T20:11:29.399Z,6.73
2023-05-17T20:13:57.874Z,17.03
2023-05-17T20:16:28.070Z,9.63
2023-05-17T20:18:58.239Z,12.60
2023-05-17T20:21:26.645Z,5.73
2023-05-17T20:24:01.070Z,6.27
2023-05-17T20:26:32.021Z,9.17
2023-05-17T20:28:59.880Z,10.97
2023-05-17T20:31:28.245Z,12.10
2023-05-17T20:33:55.805Z,13.57
2023-05-17T20:36:25.022Z,7.80
2023-05-17T20:38:53.119Z,10.23
2023-05-17T20:41:20.866Z,13.13
2023-05-17T20:43:49.813Z,6.57
2023-05-17T20:46:17.739Z,9.90
2023-05-17T20:48:47.806Z,11.70
2023-05-17T20:51:16.333Z,12.63
2023-05-17T20:53:44.031Z,13.83
2023-05-17T20:56:11.136Z,6.27
2023-05-17T20:58:38.317Z,20.73
2023-05-17T21:01:08.501Z,4.97
2023-05-17T21:03:36.110Z,9.57
2023-05-17T21:06:05.282Z,8.07
2023-05-17T21:08:34.115Z,10.73
2023-05-17T21:11:01.240Z,16.67
2023-05-17T21:13:28.387Z,5.73
2023-05-17T21:15:56.499Z,7.37
2023-05-17T21:18:23.942Z,8.67
2023-05-17T21:20:52.043Z,9.50
2023-05-17T21:23:20.169Z,12.30
2023-05-17T21:25:49.175Z,13.20
2023-05-17T21:28:16.412Z,10.13
2023-05-17T21:30:43.538Z,10.23
2023-05-17T21:33:10.924Z,8.73
2023-05-17T21:35:38.237Z,7.60
2023-05-17T21:38:05.295Z,9.13
2023-05-17T21:40:32.725Z,13.10
2023-05-17T21:43:00.035Z,7.80
2023-05-17T21:45:27.313Z,6.63
2023-05-17T21:47:55.279Z,11.30
2023-05-17T21:50:22.633Z,12.93
2023-05-17T21:52:49.884Z,24.07
2023-05-17T21:55:17.234Z,8.63
2023-05-17T21:57:44.426Z,6.40
2023-05-17T22:00:15.440Z,17.83
2023-05-17T22:02:46.597Z,11.60
2023-05-17T22:05:14.260Z,8.33
2023-05-17T22:07:41.500Z,4.87
2023-05-17T22:10:09.944Z,15.80
2023-05-17T22:12:38.300Z,15.13
2023-05-17T22:15:06.426Z,16.57
2023-05-17T22:17:47.059Z,8.33
2023-05-17T22:20:19.712Z,8.53
2023-05-17T22:22:47.043Z,14.77
2023-05-17T22:25:15.729Z,12.40
2023-05-17T22:27:43.528Z,9.70
2023-05-17T22:30:11.208Z,11.43
2023-05-17T22:32:38.356Z,12.73
2023-05-17T22:35:05.908Z,7.53
2023-05-17T22:37:34.030Z,13.97
2023-05-17T22:40:01.302Z,8.43
2023-05-17T22:42:28.429Z,9.50
2023-05-17T22:44:55.833Z,6.73
2023-05-17T22:47:24.253Z,7.10
2023-05-17T22:49:52.587Z,18.13
2023-05-17T22:52:20.202Z,10.03
2023-05-17T22:54:47.415Z,14.27
2023-05-17T22:57:14.525Z,8.17
2023-05-17T22:59:43.960Z,9.67
2023-05-17T23:02:14.481Z,6.13
2023-05-17T23:04:41.646Z,10.63
2023-05-17T23:07:10.000Z,13.20
2023-05-17T23:09:40.950Z,8.73
2023-05-17T23:12:13.987Z,10.03
2023-05-17T23:14:41.379Z,10.03
2023-05-17T23:17:08.592Z,15.17
2023-05-17T23:19:35.873Z,9.10
2023-05-17T23:22:03.458Z,12.20
2023-05-17T23:24:30.724Z,9.57
2023-05-17T23:26:57.875Z,14.10
2023-05-17T23:29:26.074Z,6.67
2023-05-17T23:31:53.709Z,4.70
2023-05-17T23:34:21.127Z,11.30
2023-05-17T23:36:48.351Z,12.40
2023-05-17T23:39:15.697Z,6.23
2023-05-17T23:41:43.020Z,15.87
2023-05-17T23:44:11.091Z,10.10
2023-05-17T23:46:38.399Z,11.70
2023-05-17T23:49:05.871Z,16.03
2023-05-17T23:51:34.768Z,7.50
2023-05-17T23:54:02.155Z,8.30
2023-05-17T23:56:29.512Z,6.13
2023-05-17T23:58:56.651Z,7.87
